createdAt,value
2018-09-11T00:00:35.660Z,6.28
2018-09-11T00:03:10.450Z,6.78
2018-09-11T00:05:45.135Z,6.55
2018-09-11T00:08:19.839Z,7.53
2018-09-11T00:10:54.524Z,6.25
2018-09-11T00:13:29.320Z,6.40
2018-09-11T00:16:04.146Z,7.70
2018-09-11T00:18:38.970Z,8.98
2018-09-11T00:21:13.694Z,7.22
2018-09-11T00:23:48.549Z,5.25
2018-09-11T00:26:23.286Z,6.87
2018-09-11T00:28:58.007Z,8.48
2018-09-11T00:31:32.838Z,6.65
2018-09-11T00:34:07.681Z,8.15
2018-09-11T00:36:42.220Z,20.05
2018-09-11T00:39:16.992Z,18.27
2018-09-11T00:41:51.659Z,28.60
2018-09-11T00:44:26.458Z,16.42
2018-09-11T00:47:01.627Z,9.00
2018-09-11T00:49:36.506Z,9.33
2018-09-11T00:52:11.306Z,6.00
2018-09-11T00:54:47.360Z,10.53
2018-09-11T00:57:22.272Z,5.60
2018-09-11T00:59:57.108Z,12.00
2018-09-11T01:02:32.813Z,7.90
2018-09-11T01:05:07.752Z,5.95
2018-09-11T01:07:42.652Z,8.68
2018-09-11T01:10:17.474Z,7.42
2018-09-11T01:12:52.287Z,5.20
2018-09-11T01:15:27.019Z,6.78
2018-09-11T01:18:01.791Z,4.80
2018-09-11T01:20:36.644Z,6.12
2018-09-11T01:23:11.349Z,9.48
2018-09-11T01:25:46.137Z,6.33
2018-09-11T01:28:20.855Z,9.10
2018-09-11T01:30:55.823Z,8.70
2018-09-11T01:33:30.583Z,7.90
2018-09-11T01:36:06.120Z,8.58
2018-09-11T01:38:40.880Z,4.30
2018-09-11T01:41:15.542Z,4.60
2018-09-11T01:43:53.534Z,15.18
2018-09-11T01:46:28.594Z,35.08
2018-09-11T01:49:03.777Z,31.02
2018-09-11T01:51:38.535Z,20.85
2018-09-11T01:54:13.092Z,13.05
2018-09-11T01:56:47.732Z,9.03
2018-09-11T01:59:22.635Z,9.63
2018-09-11T02:01:57.324Z,7.78
2018-09-11T02:04:31.863Z,4.42
2018-09-11T02:07:06.500Z,5.22
2018-09-11T02:09:41.309Z,10.32
2018-09-11T02:12:15.986Z,7.55
2018-09-11T02:14:50.794Z,5.50
2018-09-11T02:17:25.435Z,8.20
2018-09-11T02:20:00.132Z,12.00
2018-09-11T02:22:35.051Z,9.75
2018-09-11T02:25:09.926Z,9.15
2018-09-11T02:27:44.705Z,7.20
2018-09-11T02:30:19.681Z,4.60
2018-09-11T02:32:54.673Z,11.00
2018-09-11T02:35:30.099Z,7.70
2018-09-11T02:38:04.981Z,8.10
2018-09-11T02:40:39.694Z,6.42
2018-09-11T02:43:14.390Z,5.03
2018-09-11T02:45:49.346Z,3.40
2018-09-11T02:48:23.937Z,3.45
2018-09-11T02:50:58.608Z,5.30
2018-09-11T02:53:34.699Z,4.10
2018-09-11T02:56:09.632Z,4.35
2018-09-11T02:58:44.468Z,8.05
2018-09-11T03:01:19.275Z,3.40
2018-09-11T03:03:54.011Z,5.05
2018-09-11T03:06:28.704Z,5.70
2018-09-11T03:09:03.506Z,3.15
2018-09-11T03:11:38.203Z,7.12
2018-09-11T03:14:13.708Z,5.35
2018-09-11T03:16:48.559Z,5.47
2018-09-11T03:19:23.341Z,9.30
2018-09-11T03:21:58.138Z,24.27
2018-09-11T03:24:32.841Z,23.73
2018-09-11T03:27:07.662Z,22.85
2018-09-11T03:29:42.473Z,8.50
2018-09-11T03:32:18.140Z,5.40
2018-09-11T03:34:53.050Z,7.58
2018-09-11T03:37:27.879Z,5.00
2018-09-11T03:40:02.627Z,5.72
2018-09-11T03:42:37.385Z,3.22
2018-09-11T03:45:12.026Z,5.78
2018-09-11T03:47:46.746Z,5.22
2018-09-11T03:50:22.631Z,9.40
2018-09-11T03:52:57.382Z,6.50
2018-09-11T03:55:32.009Z,3.30
2018-09-11T03:58:07.339Z,13.95
2018-09-11T04:00:42.020Z,3.95
2018-09-11T04:03:16.602Z,4.40
2018-09-11T04:05:51.481Z,3.70
2018-09-11T04:08:26.084Z,4.28
2018-09-11T04:11:00.893Z,4.20
2018-09-11T04:13:35.777Z,4.20
2018-09-11T04:16:10.387Z,5.85
2018-09-11T04:18:44.901Z,3.30
2018-09-11T04:21:19.778Z,6.83
2018-09-11T04:23:54.449Z,15.78
2018-09-11T04:26:29.185Z,12.90
2018-09-11T04:29:03.985Z,28.15
2018-09-11T04:31:38.628Z,18.27
2018-09-11T04:34:13.414Z,11.33
2018-09-11T04:36:48.237Z,4.60
2018-09-11T04:39:22.947Z,5.72
2018-09-11T04:41:57.838Z,8.88
2018-09-11T04:44:32.534Z,4.60
2018-09-11T04:47:07.360Z,4.40
2018-09-11T04:49:42.112Z,4.40
2018-09-11T04:52:16.821Z,4.42
2018-09-11T04:54:51.628Z,4.60
2018-09-11T04:57:26.310Z,4.47
2018-09-11T05:00:01.020Z,5.08
2018-09-11T05:02:35.953Z,8.33
2018-09-11T05:05:10.578Z,6.30
2018-09-11T05:07:45.277Z,7.55
2018-09-11T05:10:19.945Z,7.15
2018-09-11T05:12:54.558Z,6.35
2018-09-11T05:15:29.312Z,26.73
2018-09-11T05:18:04.250Z,27.93
2018-09-11T05:20:38.988Z,42.38
2018-09-11T05:23:13.750Z,24.60
2018-09-11T05:25:48.674Z,12.90
2018-09-11T05:28:23.344Z,13.65
2018-09-11T05:30:58.133Z,13.75
2018-09-11T05:33:32.919Z,13.15
2018-09-11T05:36:07.615Z,7.35
2018-09-11T05:38:42.620Z,10.78
2018-09-11T05:41:17.583Z,5.45
2018-09-11T05:43:52.475Z,9.80
2018-09-11T05:46:27.305Z,8.10
2018-09-11T05:49:02.284Z,9.78
2018-09-11T05:51:37.016Z,7.58
2018-09-11T05:54:13.069Z,7.17
2018-09-11T05:56:47.994Z,5.10
2018-09-11T05:59:22.796Z,12.05
2018-09-11T06:01:57.494Z,8.93
2018-09-11T06:04:32.269Z,8.28
2018-09-11T06:07:07.031Z,6.40
2018-09-11T06:09:41.669Z,8.90
2018-09-11T06:12:16.338Z,5.60
2018-09-11T06:14:51.017Z,8.63
2018-09-11T06:17:25.847Z,9.08
2018-09-11T06:20:00.484Z,9.10
2018-09-11T06:22:35.353Z,8.53
2018-09-11T06:25:10.343Z,39.70
2018-09-11T06:27:45.173Z,39.13
2018-09-11T06:30:19.902Z,15.35
2018-09-11T06:32:54.527Z,12.33
2018-09-11T06:35:29.235Z,7.20
2018-09-11T06:38:04.023Z,9.73
2018-09-11T06:40:38.806Z,7.70
2018-09-11T06:43:13.653Z,7.50
2018-09-11T06:45:48.665Z,6.92
2018-09-11T06:48:23.409Z,6.58
2018-09-11T06:50:58.358Z,7.17
2018-09-11T06:53:33.182Z,7.50
2018-09-11T06:56:08.073Z,7.00
2018-09-11T06:58:42.862Z,7.30
2018-09-11T07:01:17.454Z,6.40
2018-09-11T07:03:52.430Z,6.08
2018-09-11T07:06:27.298Z,7.03
2018-09-11T07:09:01.872Z,6.83
2018-09-11T07:11:36.787Z,6.50
2018-09-11T07:14:11.494Z,5.00
2018-09-11T07:16:46.202Z,5.28
2018-09-11T07:19:20.938Z,4.92
2018-09-11T07:21:55.564Z,6.83
2018-09-11T07:24:30.308Z,9.13
2018-09-11T07:27:05.116Z,10.72
2018-09-11T07:29:39.758Z,9.63
2018-09-11T07:32:14.576Z,5.03
2018-09-11T07:34:49.216Z,5.80
2018-09-11T07:37:24.034Z,5.35
2018-09-11T07:39:58.734Z,4.28
2018-09-11T07:42:33.482Z,4.15
2018-09-11T07:45:08.118Z,4.47
2018-09-11T07:47:42.809Z,4.90
2018-09-11T07:50:17.531Z,4.08
2018-09-11T07:52:52.310Z,3.85
2018-09-11T07:55:26.950Z,3.85
2018-09-11T07:58:01.600Z,3.95
2018-09-11T08:00:36.111Z,4.37
2018-09-11T08:03:10.672Z,4.35
2018-09-11T08:05:45.428Z,4.80
2018-09-11T08:08:20.243Z,4.60
2018-09-11T08:10:54.861Z,4.45
2018-09-11T08:13:29.477Z,4.30
2018-09-11T08:16:04.126Z,4.67
2018-09-11T08:18:39.865Z,4.20
2018-09-11T08:21:14.659Z,4.65
2018-09-11T08:23:49.339Z,5.28
2018-09-11T08:26:23.990Z,13.22
2018-09-11T08:28:58.798Z,14.10
2018-09-11T08:31:33.572Z,9.45
2018-09-11T08:34:08.238Z,8.05
2018-09-11T08:36:42.994Z,6.30
2018-09-11T08:39:17.605Z,5.00
2018-09-11T08:41:52.271Z,4.42
2018-09-11T08:44:26.865Z,4.70
2018-09-11T08:47:01.639Z,4.22
2018-09-11T08:49:36.192Z,4.58
2018-09-11T08:52:10.807Z,5.17
2018-09-11T08:54:45.438Z,5.33
2018-09-11T08:57:20.215Z,5.22
2018-09-11T08:59:54.754Z,4.22
2018-09-11T09:02:29.594Z,5.60
2018-09-11T09:05:04.461Z,5.58
2018-09-11T09:07:38.975Z,4.85
2018-09-11T09:10:13.668Z,4.70
2018-09-11T09:12:48.377Z,4.50
2018-09-11T09:15:23.187Z,5.10
2018-09-11T09:17:58.133Z,6.20
2018-09-11T09:20:32.862Z,6.05
2018-09-11T09:23:07.645Z,4.90
2018-09-11T09:25:42.334Z,8.60
2018-09-11T09:28:17.743Z,12.58
2018-09-11T09:30:52.611Z,23.02
2018-09-11T09:33:27.317Z,27.07
2018-09-11T09:36:02.026Z,5.75
2018-09-11T09:38:36.701Z,8.68
2018-09-11T09:41:11.359Z,5.33
2018-09-11T09:43:46.019Z,5.30
2018-09-11T09:46:20.626Z,4.25
2018-09-11T09:48:55.398Z,4.15
2018-09-11T09:51:30.379Z,4.00
2018-09-11T09:54:05.016Z,3.90
2018-09-11T09:56:39.713Z,4.62
2018-09-11T09:59:14.546Z,5.85
2018-09-11T10:01:54.792Z,14.50
2018-09-11T10:04:29.349Z,21.10
2018-09-11T10:07:04.153Z,18.20
2018-09-11T10:09:38.791Z,16.32
2018-09-11T10:12:13.497Z,9.70
2018-09-11T10:14:48.148Z,5.08
2018-09-11T10:17:22.721Z,4.03
2018-09-11T10:19:57.281Z,3.83
2018-09-11T10:22:31.772Z,4.03
2018-09-11T10:25:06.259Z,3.80
2018-09-11T10:27:40.841Z,3.85
2018-09-11T10:30:15.481Z,3.52
2018-09-11T10:32:50.027Z,3.75
2018-09-11T10:35:24.662Z,3.92
2018-09-11T10:37:59.325Z,4.75
2018-09-11T10:40:33.780Z,3.33
2018-09-11T10:43:08.363Z,3.47
2018-09-11T10:45:42.890Z,4.17
2018-09-11T10:48:17.381Z,3.80
2018-09-11T10:50:52.080Z,4.35
2018-09-11T10:53:26.510Z,4.10
2018-09-11T10:56:00.971Z,3.85
2018-09-11T10:58:35.335Z,4.00
2018-09-11T11:01:09.893Z,3.58
2018-09-11T11:03:44.454Z,4.28
2018-09-11T11:06:18.883Z,5.15
2018-09-11T11:08:53.499Z,5.65
2018-09-11T11:11:28.139Z,3.50
2018-09-11T11:14:02.618Z,4.45
2018-09-11T11:16:37.179Z,4.12
2018-09-11T11:19:11.705Z,4.62
2018-09-11T11:21:46.213Z,3.87
2018-09-11T11:24:20.745Z,3.87
2018-09-11T11:26:55.491Z,3.62
2018-09-11T11:29:30.063Z,3.80
2018-09-11T11:32:04.651Z,3.50
2018-09-11T11:34:39.284Z,3.72
2018-09-11T11:37:13.914Z,3.67
2018-09-11T11:39:48.235Z,3.40
2018-09-11T11:42:22.818Z,4.20
2018-09-11T11:44:57.361Z,3.37
2018-09-11T11:47:31.967Z,3.60
2018-09-11T11:50:06.895Z,3.30
2018-09-11T11:52:41.302Z,3.92
2018-09-11T11:55:15.931Z,3.80
2018-09-11T11:57:50.374Z,3.15
2018-09-11T12:00:25.105Z,3.47
2018-09-11T12:02:59.604Z,3.67
2018-09-11T12:05:34.034Z,5.00
2018-09-11T12:08:08.572Z,5.47
2018-09-11T12:10:43.358Z,5.45
2018-09-11T12:13:18.052Z,4.45
2018-09-11T12:15:52.708Z,4.15
2018-09-11T12:18:27.276Z,3.75
2018-09-11T12:21:01.881Z,3.50
2018-09-11T12:23:36.396Z,4.28
2018-09-11T12:26:10.917Z,3.80
2018-09-11T12:28:45.341Z,3.95
2018-09-11T12:31:19.933Z,3.98
2018-09-11T12:33:54.476Z,3.42
2018-09-11T12:36:29.034Z,3.42
2018-09-11T12:39:04.417Z,4.05
2018-09-11T12:41:39.015Z,3.87
2018-09-11T12:44:13.619Z,4.53
2018-09-11T12:46:48.438Z,4.30
2018-09-11T12:49:22.721Z,3.58
2018-09-11T12:51:57.266Z,3.67
2018-09-11T12:54:31.926Z,3.33
2018-09-11T12:57:06.329Z,3.90
2018-09-11T12:59:40.847Z,3.92
2018-09-11T13:02:15.360Z,4.28
2018-09-11T13:04:49.914Z,4.55
2018-09-11T13:07:24.447Z,4.40
2018-09-11T13:09:58.928Z,4.25
2018-09-11T13:12:33.444Z,5.30
2018-09-11T13:15:07.921Z,4.12
2018-09-11T13:17:42.595Z,3.92
2018-09-11T13:20:17.089Z,3.70
2018-09-11T13:22:51.548Z,4.40
2018-09-11T13:25:26.042Z,3.83
2018-09-11T13:28:00.424Z,5.25
2018-09-11T13:30:34.804Z,3.52
2018-09-11T13:33:09.207Z,4.00
2018-09-11T13:35:43.611Z,4.12
2018-09-11T13:38:18.151Z,3.77
2018-09-11T13:40:52.680Z,3.47
2018-09-11T13:43:27.277Z,3.70
2018-09-11T13:46:02.004Z,4.10
2018-09-11T13:48:36.499Z,3.90
2018-09-11T13:51:11.169Z,3.85
2018-09-11T13:53:45.612Z,4.20
2018-09-11T13:56:20.226Z,3.60
2018-09-11T13:58:54.810Z,4.03
2018-09-11T14:01:29.281Z,4.40
2018-09-11T14:04:03.865Z,4.80
2018-09-11T14:06:38.340Z,4.15
2018-09-11T14:09:14.764Z,4.75
2018-09-11T14:11:49.450Z,17.23
2018-09-11T14:14:23.852Z,4.45
2018-09-11T14:16:58.278Z,4.40
2018-09-11T14:19:32.704Z,3.80
2018-09-11T14:22:07.375Z,3.37
2018-09-11T14:24:41.908Z,3.95
2018-09-11T14:27:16.382Z,3.70
2018-09-11T14:29:51.059Z,4.20
2018-09-11T14:32:25.582Z,3.50
2018-09-11T14:35:00.142Z,3.58
2018-09-11T14:37:34.721Z,3.77
2018-09-11T14:40:09.386Z,3.65
2018-09-11T14:42:43.772Z,3.63
2018-09-11T14:45:18.340Z,3.95
2018-09-11T14:47:52.985Z,3.80
2018-09-11T14:50:27.356Z,3.65
2018-09-11T14:53:01.744Z,3.87
2018-09-11T14:55:36.282Z,3.62
2018-09-11T14:58:10.924Z,3.70
2018-09-11T15:00:45.403Z,3.62
2018-09-11T15:03:19.969Z,3.47
2018-09-11T15:05:54.438Z,3.50
2018-09-11T15:08:29.124Z,4.62
2018-09-11T15:11:03.742Z,4.97
2018-09-11T15:13:38.278Z,4.97
2018-09-11T15:16:12.703Z,4.20
2018-09-11T15:18:47.156Z,4.07
2018-09-11T15:21:21.532Z,3.60
2018-09-11T15:23:56.140Z,4.30
2018-09-11T15:26:30.560Z,4.12
2018-09-11T15:29:05.438Z,3.83
2018-09-11T15:31:40.021Z,3.70
2018-09-11T15:34:14.560Z,3.65
2018-09-11T15:36:49.057Z,4.15
2018-09-11T15:39:23.708Z,3.22
2018-09-11T15:41:58.468Z,4.50
2018-09-11T15:44:33.031Z,5.28
2018-09-11T15:47:07.607Z,4.08
2018-09-11T15:49:42.189Z,4.25
2018-09-11T15:52:16.591Z,3.80
2018-09-11T15:54:51.183Z,3.80
2018-09-11T15:57:25.562Z,3.80
2018-09-11T16:00:00.130Z,3.95
2018-09-11T16:02:34.730Z,3.47
2018-09-11T16:05:09.210Z,3.98
2018-09-11T16:07:43.719Z,4.33
2018-09-11T16:10:18.287Z,4.03
2018-09-11T16:12:52.725Z,7.08
2018-09-11T16:15:27.371Z,6.35
2018-09-11T16:18:02.985Z,7.42
2018-09-11T16:20:37.803Z,5.65
2018-09-11T16:23:12.435Z,4.85
2018-09-11T16:25:47.208Z,3.45
2018-09-11T16:28:22.300Z,3.80
2018-09-11T16:31:00.071Z,3.70
2018-09-11T16:33:34.864Z,3.47
2018-09-11T16:36:09.790Z,4.03
2018-09-11T16:38:44.267Z,7.55
2018-09-11T16:41:18.962Z,7.53
2018-09-11T16:43:53.434Z,5.47
2018-09-11T16:46:27.995Z,5.25
2018-09-11T16:49:02.490Z,3.83
2018-09-11T16:51:37.853Z,5.83
2018-09-11T16:54:14.677Z,4.85
2018-09-11T16:56:51.652Z,4.60
2018-09-11T16:59:27.493Z,4.17
2018-09-11T17:02:02.302Z,4.53
2018-09-11T17:04:37.242Z,3.62
2018-09-11T17:07:12.286Z,4.35
2018-09-11T17:09:47.176Z,4.70
2018-09-11T17:12:21.960Z,11.43
2018-09-11T17:14:56.761Z,12.20
2018-09-11T17:17:31.245Z,11.12
2018-09-11T17:20:06.266Z,8.60
2018-09-11T17:22:41.018Z,6.40
2018-09-11T17:25:15.344Z,4.92
2018-09-11T17:27:50.298Z,5.70
2018-09-11T17:30:25.293Z,4.22
2018-09-11T17:32:59.862Z,4.55
2018-09-11T17:35:34.444Z,4.35
2018-09-11T17:38:09.099Z,5.28
2018-09-11T17:40:43.746Z,4.97
2018-09-11T17:43:18.240Z,4.85
2018-09-11T17:45:52.814Z,5.08
2018-09-11T17:48:27.502Z,6.08
2018-09-11T17:51:01.991Z,5.40
2018-09-11T17:53:36.332Z,5.42
2018-09-11T17:56:10.687Z,5.00
2018-09-11T17:58:45.102Z,5.53
2018-09-11T18:01:19.558Z,6.00
2018-09-11T18:03:53.963Z,6.20
2018-09-11T18:06:28.789Z,6.00
2018-09-11T18:09:03.527Z,5.55
2018-09-11T18:11:37.931Z,5.85
2018-09-11T18:14:12.335Z,7.42
2018-09-11T18:16:46.781Z,7.55
2018-09-11T18:19:21.044Z,6.37
2018-09-11T18:21:55.449Z,6.55
2018-09-11T18:24:29.857Z,5.80
2018-09-11T18:27:04.245Z,5.60
2018-09-11T18:29:38.760Z,6.00
2018-09-11T18:32:13.251Z,5.60
2018-09-11T18:34:47.628Z,5.62
2018-09-11T18:37:22.162Z,7.20
2018-09-11T18:39:56.440Z,5.90
2018-09-11T18:42:30.882Z,5.85
2018-09-11T18:45:05.659Z,6.28
2018-09-11T18:47:40.315Z,6.75
2018-09-11T18:50:14.837Z,6.85
2018-09-11T18:52:49.584Z,6.45
2018-09-11T18:55:23.991Z,6.20
2018-09-11T18:57:58.798Z,6.85
2018-09-11T19:00:33.109Z,6.42
2018-09-11T19:03:07.610Z,6.08
2018-09-11T19:05:42.179Z,5.75
2018-09-11T19:08:16.705Z,5.85
2018-09-11T19:10:52.409Z,7.55
2018-09-11T19:13:27.478Z,5.92
2018-09-11T19:16:02.138Z,6.20
2018-09-11T19:18:36.644Z,6.35
2018-09-11T19:21:11.082Z,7.30
2018-09-11T19:23:45.595Z,6.12
2018-09-11T19:26:20.019Z,5.55
2018-09-11T19:28:54.608Z,6.05
2018-09-11T19:31:28.974Z,6.40
2018-09-11T19:34:03.529Z,6.95
2018-09-11T19:36:37.879Z,6.60
2018-09-11T19:39:12.379Z,7.05
2018-09-11T19:41:46.765Z,6.35
2018-09-11T19:44:21.115Z,6.53
2018-09-11T19:46:55.523Z,6.50
2018-09-11T19:49:29.963Z,6.12
2018-09-11T19:52:04.421Z,9.38
2018-09-11T19:54:38.903Z,7.00
2018-09-11T19:57:13.427Z,7.30
2018-09-11T19:59:47.785Z,5.87
2018-09-11T20:02:22.184Z,6.65
2018-09-11T20:04:56.571Z,6.00
2018-09-11T20:07:31.040Z,6.20
2018-09-11T20:10:05.451Z,6.83
2018-09-11T20:12:39.855Z,6.28
2018-09-11T20:15:14.367Z,5.85
2018-09-11T20:17:48.822Z,5.85
2018-09-11T20:20:23.328Z,7.53
2018-09-11T20:22:57.775Z,5.55
2018-09-11T20:25:32.116Z,6.55
2018-09-11T20:28:06.695Z,5.67
2018-09-11T20:30:41.205Z,5.67
2018-09-11T20:33:15.601Z,6.35
2018-09-11T20:35:49.967Z,6.25
2018-09-11T20:38:25.676Z,9.25
2018-09-11T20:41:04.418Z,9.23
2018-09-11T20:43:39.480Z,11.60
2018-09-11T20:46:14.178Z,7.80
2018-09-11T20:48:48.608Z,5.87
2018-09-11T20:51:23.058Z,5.55
2018-09-11T20:53:57.407Z,6.55
2018-09-11T20:56:31.844Z,7.00
2018-09-11T20:59:06.378Z,6.97
2018-09-11T21:01:40.903Z,11.45
2018-09-11T21:04:15.407Z,7.17
2018-09-11T21:06:49.908Z,7.08
2018-09-11T21:09:24.377Z,6.45
2018-09-11T21:11:58.791Z,7.97
2018-09-11T21:14:33.183Z,6.00
2018-09-11T21:17:07.695Z,6.20
2018-09-11T21:19:42.048Z,5.80
2018-09-11T21:22:16.387Z,6.70
2018-09-11T21:24:50.877Z,7.25
2018-09-11T21:27:25.532Z,6.65
2018-09-11T21:30:00.417Z,6.75
2018-09-11T21:32:34.989Z,7.40
2018-09-11T21:35:09.587Z,6.72
2018-09-11T21:37:44.141Z,7.10
2018-09-11T21:40:18.763Z,6.60
2018-09-11T21:42:53.157Z,6.75
2018-09-11T21:45:27.533Z,6.58
2018-09-11T21:48:02.190Z,6.35
2018-09-11T21:50:36.708Z,6.40
2018-09-11T21:53:11.172Z,5.90
2018-09-11T21:55:45.556Z,6.97
2018-09-11T21:58:20.019Z,6.17
2018-09-11T22:00:59.950Z,6.17
2018-09-11T22:03:34.467Z,6.00
2018-09-11T22:06:08.759Z,7.10
2018-09-11T22:08:43.154Z,8.50
2018-09-11T22:11:17.588Z,6.97
2018-09-11T22:13:52.072Z,6.08
2018-09-11T22:16:26.383Z,6.47
2018-09-11T22:19:00.883Z,7.08
2018-09-11T22:21:36.059Z,6.28
2018-09-11T22:24:10.454Z,6.53
2018-09-11T22:26:44.764Z,6.05
2018-09-11T22:29:19.188Z,6.30
2018-09-11T22:31:53.805Z,6.20
2018-09-11T22:34:28.133Z,6.72
2018-09-11T22:37:02.663Z,6.22
2018-09-11T22:39:37.166Z,6.85
2018-09-11T22:42:11.587Z,6.22
2018-09-11T22:44:46.064Z,6.47
2018-09-11T22:47:20.447Z,6.55
2018-09-11T22:49:54.847Z,6.08
2018-09-11T22:52:29.325Z,7.42
2018-09-11T22:55:03.954Z,6.95
2018-09-11T22:57:38.343Z,7.10
2018-09-11T23:00:12.735Z,6.10
2018-09-11T23:02:47.235Z,6.30
2018-09-11T23:05:21.673Z,5.97
2018-09-11T23:07:56.133Z,6.58
2018-09-11T23:10:30.514Z,8.25
2018-09-11T23:13:04.825Z,10.50
2018-09-11T23:15:39.316Z,6.97
2018-09-11T23:18:13.655Z,6.25
2018-09-11T23:20:48.007Z,5.75
2018-09-11T23:23:22.570Z,5.30
2018-09-11T23:25:57.048Z,5.05
2018-09-11T23:28:31.518Z,5.40
2018-09-11T23:31:06.056Z,4.90
2018-09-11T23:33:40.459Z,5.25
2018-09-11T23:36:15.042Z,6.05
2018-09-11T23:38:49.418Z,6.03
2018-09-11T23:41:23.916Z,5.80
2018-09-11T23:43:58.182Z,5.85
2018-09-11T23:46:32.554Z,6.03
2018-09-11T23:49:07.280Z,5.40
2018-09-11T23:51:41.726Z,6.05
2018-09-11T23:54:16.066Z,5.60
2018-09-11T23:56:50.442Z,5.90
2018-09-11T23:59:24.814Z,6.42
